createdAt,value
2017-12-31T00:01:01.402Z,91.30
2017-12-31T00:03:28.980Z,91.56
2017-12-31T00:05:56.558Z,91.57
2017-12-31T00:08:24.282Z,90.18
2017-12-31T00:10:51.889Z,89.23
2017-12-31T00:13:19.481Z,89.80
2017-12-31T00:15:47.105Z,90.45
2017-12-31T00:18:14.670Z,90.52
2017-12-31T00:20:42.313Z,90.43
2017-12-31T00:23:09.923Z,90.40
2017-12-31T00:25:37.496Z,90.92
2017-12-31T00:28:05.099Z,90.72
2017-12-31T00:30:32.716Z,90.89
2017-12-31T00:33:00.282Z,91.47
2017-12-31T00:35:27.855Z,91.08
2017-12-31T00:37:55.487Z,91.09
2017-12-31T00:40:24.131Z,91.23
2017-12-31T00:42:51.701Z,90.79
2017-12-31T00:45:19.314Z,91.16
2017-12-31T00:47:46.883Z,91.09
2017-12-31T00:50:14.466Z,91.00
2017-12-31T00:52:42.096Z,91.30
2017-12-31T00:55:09.674Z,91.76
2017-12-31T00:57:37.244Z,90.99
2017-12-31T01:00:04.868Z,91.24
2017-12-31T01:02:32.475Z,90.75
2017-12-31T01:05:00.131Z,91.27
2017-12-31T01:07:27.748Z,91.47
2017-12-31T01:09:55.344Z,92.24
2017-12-31T01:12:23.120Z,92.37
2017-12-31T01:14:50.736Z,92.32
2017-12-31T01:17:18.309Z,92.35
2017-12-31T01:19:45.889Z,92.59
2017-12-31T01:22:13.508Z,92.22
2017-12-31T01:24:41.098Z,92.22
2017-12-31T01:27:08.727Z,92.52
2017-12-31T01:29:36.348Z,92.36
2017-12-31T01:32:03.932Z,92.23
2017-12-31T01:34:31.522Z,92.33
2017-12-31T01:36:59.133Z,92.09
2017-12-31T01:39:26.716Z,92.19
2017-12-31T01:41:54.297Z,92.90
2017-12-31T01:44:22.491Z,92.81
2017-12-31T01:46:50.055Z,92.88
2017-12-31T01:49:17.656Z,92.92
2017-12-31T01:51:45.272Z,92.97
2017-12-31T01:54:12.853Z,93.12
2017-12-31T01:56:40.449Z,93.58
2017-12-31T01:59:08.064Z,92.66
2017-12-31T02:01:35.648Z,92.56
2017-12-31T02:04:03.232Z,92.79
2017-12-31T02:06:30.864Z,92.66
2017-12-31T02:08:58.437Z,92.07
2017-12-31T02:11:26.062Z,92.28
2017-12-31T02:13:54.579Z,92.61
2017-12-31T02:16:22.169Z,92.60
2017-12-31T02:18:49.745Z,93.04
2017-12-31T02:21:17.374Z,92.50
2017-12-31T02:23:44.953Z,91.04
2017-12-31T02:26:12.547Z,91.17
2017-12-31T02:28:40.175Z,91.36
2017-12-31T02:31:07.767Z,91.35
2017-12-31T02:33:35.345Z,90.96
2017-12-31T02:36:02.990Z,90.72
2017-12-31T02:38:30.577Z,90.96
2017-12-31T02:40:59.068Z,91.01
2017-12-31T02:43:26.695Z,90.82
2017-12-31T02:45:54.277Z,91.17
2017-12-31T02:48:21.872Z,91.56
2017-12-31T02:50:49.607Z,91.86
2017-12-31T02:53:17.224Z,91.59
2017-12-31T02:55:44.813Z,91.18
2017-12-31T02:58:12.429Z,91.29
2017-12-31T03:00:40.022Z,91.64
2017-12-31T03:03:07.608Z,91.93
2017-12-31T03:05:35.235Z,92.11
2017-12-31T03:08:02.817Z,91.27
2017-12-31T03:10:30.380Z,91.01
2017-12-31T03:12:58.025Z,91.18
2017-12-31T03:15:25.651Z,91.59
2017-12-31T03:17:53.318Z,91.74
2017-12-31T03:20:20.991Z,91.50
2017-12-31T03:22:48.590Z,91.20
2017-12-31T03:25:16.169Z,90.76
2017-12-31T03:27:43.789Z,90.87
2017-12-31T03:30:11.388Z,91.29
2017-12-31T03:32:38.977Z,90.96
2017-12-31T03:35:06.596Z,90.92
2017-12-31T03:37:34.171Z,91.15
2017-12-31T03:40:01.761Z,90.85
2017-12-31T03:42:29.405Z,91.12
2017-12-31T03:44:57.003Z,90.87
2017-12-31T03:47:24.593Z,91.16
2017-12-31T03:49:52.228Z,91.46
2017-12-31T03:52:19.827Z,91.71
2017-12-31T03:54:47.416Z,92.09
2017-12-31T03:57:15.046Z,91.80
2017-12-31T03:59:42.630Z,91.17
2017-12-31T04:02:10.231Z,91.20
2017-12-31T04:04:37.853Z,91.30
2017-12-31T04:07:05.451Z,91.77
2017-12-31T04:09:33.041Z,91.73
2017-12-31T04:12:00.665Z,91.93
2017-12-31T04:14:28.249Z,91.20
2017-12-31T04:16:55.844Z,90.92
2017-12-31T04:19:23.460Z,91.16
2017-12-31T04:21:51.032Z,91.26
2017-12-31T04:24:18.614Z,91.08
2017-12-31T04:26:46.229Z,91.00
2017-12-31T04:29:13.821Z,91.13
2017-12-31T04:31:41.414Z,91.64
2017-12-31T04:34:09.038Z,92.07
2017-12-31T04:36:36.625Z,92.41
2017-12-31T04:39:04.300Z,92.42
2017-12-31T04:41:31.936Z,92.25
2017-12-31T04:43:59.540Z,91.98
2017-12-31T04:46:27.133Z,92.10
2017-12-31T04:48:54.754Z,91.91
2017-12-31T04:51:22.344Z,92.52
2017-12-31T04:53:49.928Z,92.54
2017-12-31T04:56:17.561Z,92.51
2017-12-31T04:58:45.159Z,92.65
2017-12-31T05:01:12.737Z,92.57
2017-12-31T05:03:40.347Z,91.58
2017-12-31T05:06:07.940Z,90.84
2017-12-31T05:08:35.532Z,90.70
2017-12-31T05:11:03.156Z,90.85
2017-12-31T05:13:30.740Z,91.09
2017-12-31T05:15:58.330Z,90.11
2017-12-31T05:18:26.003Z,89.53
2017-12-31T05:20:53.595Z,89.11
2017-12-31T05:23:21.182Z,89.09
2017-12-31T05:25:48.817Z,89.14
2017-12-31T05:28:16.405Z,89.69
2017-12-31T05:30:43.997Z,90.04
2017-12-31T05:33:11.630Z,90.63
2017-12-31T05:35:39.219Z,90.26
2017-12-31T05:38:06.847Z,90.00
2017-12-31T05:40:34.459Z,89.92
2017-12-31T05:43:02.026Z,89.86
2017-12-31T05:45:29.613Z,90.10
2017-12-31T05:47:57.240Z,90.78
2017-12-31T05:50:24.824Z,91.07
2017-12-31T05:52:52.396Z,91.22
2017-12-31T05:55:20.028Z,90.54
2017-12-31T05:57:47.616Z,90.34
2017-12-31T06:00:15.200Z,90.46
2017-12-31T06:02:42.824Z,90.42
2017-12-31T06:05:10.418Z,89.67
2017-12-31T06:07:38.007Z,89.82
2017-12-31T06:10:05.628Z,90.13
2017-12-31T06:12:33.228Z,90.58
2017-12-31T06:15:00.820Z,90.79
2017-12-31T06:17:28.520Z,90.42
2017-12-31T06:19:56.113Z,90.25
2017-12-31T06:22:23.705Z,90.01
2017-12-31T06:24:51.335Z,90.05
2017-12-31T06:27:18.950Z,89.52
2017-12-31T06:29:46.537Z,89.06
2017-12-31T06:32:14.193Z,89.29
2017-12-31T06:34:41.774Z,89.51
2017-12-31T06:37:09.358Z,89.89
2017-12-31T06:39:36.979Z,89.72
2017-12-31T06:42:04.575Z,89.32
2017-12-31T06:44:32.150Z,89.93
2017-12-31T06:46:59.771Z,89.14
2017-12-31T06:49:27.352Z,85.06
2017-12-31T06:51:54.948Z,81.95
2017-12-31T06:54:22.560Z,76.48
2017-12-31T06:56:50.136Z,73.58
2017-12-31T06:59:17.756Z,71.14
2017-12-31T07:01:45.367Z,67.31
2017-12-31T07:04:12.936Z,64.73
2017-12-31T07:06:40.500Z,61.05
2017-12-31T07:09:08.110Z,58.29
2017-12-31T07:11:35.700Z,56.65
2017-12-31T07:14:03.284Z,54.92
2017-12-31T07:16:30.914Z,55.15
2017-12-31T07:18:58.509Z,54.23
2017-12-31T07:21:26.088Z,55.37
2017-12-31T07:23:53.703Z,52.74
2017-12-31T07:26:21.270Z,50.03
2017-12-31T07:28:48.857Z,48.45
2017-12-31T07:31:16.481Z,47.78
2017-12-31T07:33:44.068Z,48.21
2017-12-31T07:36:11.661Z,48.56
2017-12-31T07:38:39.287Z,47.56
2017-12-31T07:41:06.872Z,48.66
2017-12-31T07:43:34.461Z,49.76
2017-12-31T07:46:02.111Z,52.10
2017-12-31T07:48:29.681Z,52.51
2017-12-31T07:50:57.270Z,53.21
2017-12-31T07:53:25.387Z,57.28
2017-12-31T07:55:52.974Z,55.97
2017-12-31T07:58:20.547Z,57.27
2017-12-31T08:00:48.168Z,56.87
2017-12-31T08:03:15.745Z,56.05
2017-12-31T08:05:43.333Z,55.66
2017-12-31T08:08:10.995Z,55.02
2017-12-31T08:10:38.593Z,53.77
2017-12-31T08:13:06.186Z,54.05
2017-12-31T08:15:33.861Z,55.47
2017-12-31T08:18:01.446Z,55.26
2017-12-31T08:20:29.029Z,57.47
2017-12-31T08:22:56.645Z,56.70
2017-12-31T08:25:24.228Z,57.26
2017-12-31T08:27:51.816Z,58.05
2017-12-31T08:30:19.417Z,59.59
2017-12-31T08:32:47.051Z,61.02
2017-12-31T08:35:14.622Z,61.46
2017-12-31T08:37:42.234Z,61.87
2017-12-31T08:40:09.813Z,62.51
2017-12-31T08:42:37.394Z,61.46
2017-12-31T08:45:05.036Z,62.50
2017-12-31T08:47:32.637Z,62.11
2017-12-31T08:50:00.215Z,61.15
2017-12-31T08:52:27.824Z,62.13
2017-12-31T08:54:55.564Z,61.74
2017-12-31T08:57:23.138Z,61.32
2017-12-31T08:59:50.770Z,60.55
2017-12-31T09:02:18.344Z,61.44
2017-12-31T09:04:45.928Z,62.26
2017-12-31T09:07:13.704Z,62.90
2017-12-31T09:09:41.334Z,64.20
2017-12-31T09:12:08.909Z,63.48
2017-12-31T09:14:36.568Z,64.29
2017-12-31T09:17:04.129Z,63.99
2017-12-31T09:19:31.693Z,63.70
2017-12-31T09:21:59.291Z,62.95
2017-12-31T09:24:26.852Z,62.89
2017-12-31T09:26:54.416Z,61.56
2017-12-31T09:29:22.040Z,61.20
2017-12-31T09:31:49.621Z,61.96
2017-12-31T09:34:17.187Z,61.03
2017-12-31T09:36:44.793Z,60.95
2017-12-31T09:39:12.370Z,60.59
2017-12-31T09:41:39.951Z,59.44
2017-12-31T09:44:07.573Z,58.57
2017-12-31T09:46:35.154Z,57.86
2017-12-31T09:49:02.749Z,58.69
2017-12-31T09:51:30.368Z,57.79
2017-12-31T09:53:57.972Z,58.18
2017-12-31T09:56:25.567Z,56.61
2017-12-31T09:58:53.208Z,55.80
2017-12-31T10:01:20.793Z,55.65
2017-12-31T10:03:48.362Z,53.85
2017-12-31T10:06:16.025Z,53.79
2017-12-31T10:08:43.628Z,53.89
2017-12-31T10:11:11.203Z,55.02
2017-12-31T10:13:38.841Z,55.09
2017-12-31T10:16:06.557Z,55.34
2017-12-31T10:18:34.161Z,54.21
2017-12-31T10:21:01.832Z,53.08
2017-12-31T10:23:29.418Z,51.63
2017-12-31T10:25:57.014Z,51.34
2017-12-31T10:28:24.620Z,52.56
2017-12-31T10:30:52.204Z,52.40
2017-12-31T10:33:19.788Z,51.80
2017-12-31T10:35:47.392Z,51.78
2017-12-31T10:38:14.970Z,52.51
2017-12-31T10:40:42.583Z,51.25
2017-12-31T10:43:10.222Z,49.74
2017-12-31T10:45:37.936Z,48.36
2017-12-31T10:48:05.518Z,45.41
2017-12-31T10:50:33.154Z,44.23
2017-12-31T10:53:00.747Z,41.56
2017-12-31T10:55:28.319Z,40.76
2017-12-31T10:57:55.935Z,40.60
2017-12-31T11:00:23.547Z,41.17
2017-12-31T11:02:51.137Z,41.13
2017-12-31T11:05:18.753Z,40.72
2017-12-31T11:07:46.324Z,38.44
2017-12-31T11:10:13.938Z,37.25
2017-12-31T11:12:41.679Z,35.71
2017-12-31T11:15:09.255Z,35.06
2017-12-31T11:17:37.156Z,33.42
2017-12-31T11:20:04.839Z,32.21
2017-12-31T11:22:35.519Z,33.28
2017-12-31T11:25:05.230Z,33.42
2017-12-31T11:27:38.012Z,33.18
2017-12-31T11:30:10.769Z,34.36
2017-12-31T11:32:42.417Z,33.98
2017-12-31T11:35:14.744Z,35.35
2017-12-31T11:37:47.405Z,35.89
2017-12-31T11:40:18.970Z,35.89
2017-12-31T11:42:50.179Z,35.87
2017-12-31T11:45:22.010Z,36.28
2017-12-31T11:47:54.005Z,34.83
2017-12-31T11:50:21.982Z,35.68
2017-12-31T11:52:53.632Z,35.15
2017-12-31T11:55:25.183Z,33.92
2017-12-31T11:57:52.952Z,33.13
2017-12-31T12:00:20.551Z,30.55
2017-12-31T12:02:48.147Z,28.48
2017-12-31T12:05:15.714Z,27.24
2017-12-31T12:07:43.291Z,27.27
2017-12-31T12:10:10.908Z,28.04
2017-12-31T12:12:38.480Z,29.53
2017-12-31T12:15:06.064Z,30.85
2017-12-31T12:17:33.671Z,32.43
2017-12-31T12:20:01.252Z,33.73
2017-12-31T12:22:28.821Z,33.99
2017-12-31T12:24:56.428Z,35.47
2017-12-31T12:27:23.978Z,35.00
2017-12-31T12:29:51.539Z,35.79
2017-12-31T12:32:19.146Z,36.87
2017-12-31T12:34:46.710Z,37.50
2017-12-31T12:37:14.303Z,37.35
2017-12-31T12:39:41.918Z,36.61
2017-12-31T12:42:09.494Z,38.06
2017-12-31T12:44:37.069Z,37.58
2017-12-31T12:47:04.670Z,37.10
2017-12-31T12:49:32.249Z,36.32
2017-12-31T12:51:59.867Z,35.58
2017-12-31T12:54:27.675Z,36.20
2017-12-31T12:56:55.267Z,35.11
2017-12-31T12:59:22.836Z,35.36
2017-12-31T13:01:50.461Z,37.04
2017-12-31T13:04:18.025Z,38.64
2017-12-31T13:06:45.643Z,37.74
2017-12-31T13:09:13.258Z,37.92
2017-12-31T13:11:40.837Z,38.15
2017-12-31T13:14:08.412Z,39.44
2017-12-31T13:16:36.019Z,39.97
2017-12-31T13:19:03.596Z,40.72
2017-12-31T13:21:31.253Z,42.10
2017-12-31T13:23:58.849Z,43.28
2017-12-31T13:26:26.444Z,44.29
2017-12-31T13:28:54.002Z,44.83
2017-12-31T13:31:21.649Z,45.81
2017-12-31T13:33:49.231Z,45.14
2017-12-31T13:36:16.808Z,46.08
2017-12-31T13:38:44.416Z,46.31
2017-12-31T13:41:11.997Z,44.75
2017-12-31T13:43:39.561Z,44.05
2017-12-31T13:46:07.239Z,43.74
2017-12-31T13:48:34.823Z,44.33
2017-12-31T13:51:02.413Z,44.66
2017-12-31T13:53:30.029Z,43.90
2017-12-31T13:55:57.629Z,43.38
2017-12-31T13:58:25.208Z,42.79
2017-12-31T14:00:52.823Z,43.36
2017-12-31T14:03:20.399Z,43.73
2017-12-31T14:05:47.968Z,44.42
2017-12-31T14:08:15.607Z,46.39
2017-12-31T14:10:43.176Z,49.02
2017-12-31T14:13:10.761Z,49.74
2017-12-31T14:15:38.371Z,49.28
2017-12-31T14:18:05.943Z,49.75
2017-12-31T14:20:33.506Z,53.31
2017-12-31T14:23:01.140Z,52.93
2017-12-31T14:25:28.735Z,54.45
2017-12-31T14:27:56.305Z,55.93
2017-12-31T14:30:23.979Z,57.30
2017-12-31T14:32:51.550Z,57.81
2017-12-31T14:35:19.131Z,58.85
2017-12-31T14:37:46.723Z,60.19
2017-12-31T14:40:14.288Z,61.24
2017-12-31T14:42:41.849Z,61.28
2017-12-31T14:45:09.458Z,61.89
2017-12-31T14:47:37.029Z,63.31
2017-12-31T14:50:04.601Z,65.04
2017-12-31T14:52:32.388Z,65.53
2017-12-31T14:54:59.985Z,67.39
2017-12-31T14:57:27.597Z,69.30
2017-12-31T14:59:55.220Z,69.93
2017-12-31T15:02:22.799Z,70.30
2017-12-31T15:04:50.388Z,70.85
2017-12-31T15:07:18.013Z,71.21
2017-12-31T15:09:45.599Z,70.89
2017-12-31T15:12:13.173Z,73.60
2017-12-31T15:14:40.784Z,74.10
2017-12-31T15:17:08.363Z,73.98
2017-12-31T15:19:35.933Z,74.15
2017-12-31T15:22:03.557Z,73.84
2017-12-31T15:24:31.144Z,74.31
2017-12-31T15:26:58.799Z,75.44
2017-12-31T15:29:26.410Z,76.23
2017-12-31T15:31:53.979Z,77.08
2017-12-31T15:34:21.551Z,76.76
2017-12-31T15:36:49.175Z,77.08
2017-12-31T15:39:16.745Z,77.50
2017-12-31T15:41:44.301Z,77.56
2017-12-31T15:44:11.910Z,77.99
2017-12-31T15:46:39.485Z,78.75
2017-12-31T15:49:07.038Z,79.27
2017-12-31T15:51:34.674Z,79.25
2017-12-31T15:54:02.229Z,79.37
2017-12-31T15:56:29.836Z,80.05
2017-12-31T15:58:57.434Z,80.59
2017-12-31T16:01:24.983Z,81.06
2017-12-31T16:03:52.553Z,81.00
2017-12-31T16:06:20.206Z,81.35
2017-12-31T16:08:47.765Z,81.61
2017-12-31T16:11:15.321Z,81.72
2017-12-31T16:13:42.939Z,81.00
2017-12-31T16:16:10.488Z,81.61
2017-12-31T16:18:38.052Z,81.46
2017-12-31T16:21:05.643Z,81.78
2017-12-31T16:23:33.223Z,81.34
2017-12-31T16:26:00.847Z,80.87
2017-12-31T16:28:28.458Z,81.45
2017-12-31T16:30:56.017Z,81.18
2017-12-31T16:33:23.593Z,81.17
2017-12-31T16:35:51.229Z,81.44
2017-12-31T16:38:18.785Z,82.09
2017-12-31T16:40:46.366Z,81.65
2017-12-31T16:43:13.964Z,81.95
2017-12-31T16:45:41.591Z,82.51
2017-12-31T16:48:09.137Z,83.47
2017-12-31T16:50:36.785Z,84.04
2017-12-31T16:53:04.352Z,83.90
2017-12-31T16:55:31.907Z,83.65
2017-12-31T16:57:59.557Z,84.16
2017-12-31T17:00:27.122Z,84.60
2017-12-31T17:02:54.682Z,84.49
2017-12-31T17:05:22.280Z,84.61
2017-12-31T17:07:49.862Z,84.96
2017-12-31T17:10:17.483Z,85.26
2017-12-31T17:12:45.096Z,85.11
2017-12-31T17:15:12.671Z,85.39
2017-12-31T17:17:40.245Z,85.39
2017-12-31T17:20:07.842Z,85.17
2017-12-31T17:22:35.416Z,85.03
2017-12-31T17:25:02.967Z,85.14
2017-12-31T17:27:30.546Z,85.35
2017-12-31T17:29:58.160Z,85.27
2017-12-31T17:32:25.723Z,85.87
2017-12-31T17:34:53.339Z,84.59
2017-12-31T17:37:20.912Z,84.08
2017-12-31T17:39:48.462Z,84.18
2017-12-31T17:42:16.083Z,84.15
2017-12-31T17:44:43.645Z,83.91
2017-12-31T17:47:11.220Z,84.07
2017-12-31T17:49:38.804Z,84.87
2017-12-31T17:52:06.406Z,85.73
2017-12-31T17:54:34.006Z,85.64
2017-12-31T17:57:01.592Z,85.73
2017-12-31T17:59:29.159Z,86.06
2017-12-31T18:01:56.722Z,85.98
2017-12-31T18:04:24.319Z,86.38
2017-12-31T18:06:51.880Z,86.55
2017-12-31T18:09:19.444Z,86.87
2017-12-31T18:11:47.112Z,87.23
2017-12-31T18:14:14.662Z,87.48
2017-12-31T18:16:42.224Z,87.80
2017-12-31T18:19:09.821Z,88.49
2017-12-31T18:21:37.371Z,88.13
2017-12-31T18:24:04.923Z,86.67
2017-12-31T18:26:32.518Z,85.14
2017-12-31T18:29:00.085Z,85.60
2017-12-31T18:31:27.646Z,84.75
2017-12-31T18:33:55.253Z,83.23
2017-12-31T18:36:22.809Z,83.42
2017-12-31T18:38:50.373Z,81.50
2017-12-31T18:41:17.988Z,80.53
2017-12-31T18:43:45.593Z,79.80
2017-12-31T18:46:13.156Z,80.12
2017-12-31T18:48:40.765Z,79.98
2017-12-31T18:51:08.318Z,78.98
2017-12-31T18:53:35.882Z,77.71
2017-12-31T18:56:03.467Z,78.04
2017-12-31T18:58:31.056Z,79.92
2017-12-31T19:00:58.629Z,81.27
2017-12-31T19:03:26.214Z,81.82
2017-12-31T19:05:53.782Z,82.19
2017-12-31T19:08:21.341Z,81.62
2017-12-31T19:10:48.930Z,80.97
2017-12-31T19:13:16.511Z,80.28
2017-12-31T19:15:44.077Z,81.03
2017-12-31T19:18:11.677Z,80.22
2017-12-31T19:20:39.258Z,80.23
2017-12-31T19:23:06.820Z,80.37
2017-12-31T19:25:34.416Z,79.35
2017-12-31T19:28:01.992Z,77.78
2017-12-31T19:30:29.622Z,78.32
2017-12-31T19:32:57.240Z,79.80
2017-12-31T19:35:24.801Z,81.10
2017-12-31T19:37:52.371Z,81.42
2017-12-31T19:40:19.987Z,82.40
2017-12-31T19:42:47.559Z,82.05
2017-12-31T19:45:15.132Z,81.36
2017-12-31T19:47:42.743Z,81.93
2017-12-31T19:50:10.306Z,82.42
2017-12-31T19:52:37.855Z,82.59
2017-12-31T19:55:05.448Z,82.10
2017-12-31T19:57:33.020Z,82.32
2017-12-31T20:00:00.579Z,83.09
2017-12-31T20:02:28.183Z,84.27
2017-12-31T20:04:55.778Z,84.94
2017-12-31T20:07:23.365Z,84.98
2017-12-31T20:09:50.963Z,84.76
2017-12-31T20:12:18.533Z,84.60
2017-12-31T20:14:46.104Z,84.99
2017-12-31T20:17:13.819Z,85.04
2017-12-31T20:19:41.380Z,85.03
2017-12-31T20:22:09.015Z,85.57
2017-12-31T20:24:36.607Z,85.84
2017-12-31T20:27:04.180Z,85.77
2017-12-31T20:29:31.799Z,85.41
2017-12-31T20:31:59.463Z,84.76
2017-12-31T20:34:27.018Z,84.58
2017-12-31T20:36:54.620Z,85.23
2017-12-31T20:39:22.238Z,85.92
2017-12-31T20:41:49.795Z,86.31
2017-12-31T20:44:17.406Z,85.96
2017-12-31T20:46:45.017Z,85.90
2017-12-31T20:49:12.585Z,86.07
2017-12-31T20:51:40.141Z,86.16
2017-12-31T20:54:07.736Z,86.32
2017-12-31T20:56:35.294Z,85.79
2017-12-31T20:59:02.842Z,86.12
2017-12-31T21:01:30.437Z,86.22
2017-12-31T21:03:57.987Z,86.61
2017-12-31T21:06:25.553Z,86.83
2017-12-31T21:08:53.177Z,86.11
2017-12-31T21:11:20.741Z,85.91
2017-12-31T21:13:48.319Z,85.83
2017-12-31T21:16:15.903Z,85.65
2017-12-31T21:18:43.476Z,86.19
2017-12-31T21:21:11.048Z,86.58
2017-12-31T21:23:38.641Z,85.78
2017-12-31T21:26:06.196Z,85.47
2017-12-31T21:28:33.769Z,85.56
2017-12-31T21:31:01.387Z,85.58
2017-12-31T21:33:29.129Z,85.02
2017-12-31T21:35:56.698Z,84.50
2017-12-31T21:38:24.316Z,83.74
2017-12-31T21:40:51.882Z,83.75
2017-12-31T21:43:19.573Z,84.14
2017-12-31T21:45:47.157Z,83.85
2017-12-31T21:48:14.735Z,84.44
2017-12-31T21:50:42.297Z,85.16
2017-12-31T21:53:09.906Z,85.40
2017-12-31T21:55:37.479Z,85.45
2017-12-31T21:58:05.049Z,84.69
2017-12-31T22:00:32.670Z,84.42
2017-12-31T22:03:00.251Z,84.21
2017-12-31T22:05:27.817Z,85.00
2017-12-31T22:07:55.425Z,85.48
2017-12-31T22:10:23.017Z,85.45
2017-12-31T22:12:50.619Z,85.89
2017-12-31T22:15:18.246Z,86.06
2017-12-31T22:17:45.813Z,87.23
2017-12-31T22:20:13.385Z,86.90
2017-12-31T22:22:41.009Z,86.62
2017-12-31T22:25:08.587Z,87.80
2017-12-31T22:27:36.163Z,87.16
2017-12-31T22:30:03.773Z,86.94
2017-12-31T22:32:31.345Z,87.24
2017-12-31T22:34:58.929Z,87.85
2017-12-31T22:37:26.536Z,88.37
2017-12-31T22:39:54.111Z,88.90
2017-12-31T22:42:21.681Z,88.51
2017-12-31T22:44:49.308Z,88.26
2017-12-31T22:47:16.869Z,88.29
2017-12-31T22:49:44.456Z,88.20
2017-12-31T22:52:12.066Z,88.81
2017-12-31T22:54:39.669Z,89.36
2017-12-31T22:57:07.240Z,90.29
2017-12-31T22:59:34.860Z,90.37
2017-12-31T23:02:02.454Z,90.31
2017-12-31T23:04:30.026Z,90.47
2017-12-31T23:06:57.632Z,90.40
2017-12-31T23:09:25.220Z,90.02
2017-12-31T23:11:52.792Z,90.17
2017-12-31T23:14:20.416Z,90.52
2017-12-31T23:16:47.969Z,90.20
2017-12-31T23:19:15.533Z,90.31
2017-12-31T23:21:43.136Z,90.10
2017-12-31T23:24:10.709Z,90.11
2017-12-31T23:26:38.276Z,89.94
2017-12-31T23:29:05.904Z,90.09
2017-12-31T23:31:33.453Z,90.39
2017-12-31T23:34:01.077Z,90.30
2017-12-31T23:36:28.676Z,90.28
2017-12-31T23:38:56.259Z,89.93
2017-12-31T23:41:23.823Z,90.46
2017-12-31T23:43:51.439Z,90.44
2017-12-31T23:46:19.081Z,90.29
2017-12-31T23:48:46.687Z,90.35
2017-12-31T23:51:14.288Z,90.27
2017-12-31T23:53:41.883Z,89.96
2017-12-31T23:56:09.450Z,90.03
2017-12-31T23:58:37.062Z,90.19
